PAPH

Details ICAO PAPH (PTH)
Name PORT HEIDEN
Region USA (Alaska)
Timezone America/Anchorage (UTC-9.0)
Plans Departing 9
Arriving 9
Stats Elevation 95 ft / 29 m (AMSL)
Location 56.959091° -158.634728°
Runways 2
Magnetic Variation 12.529° E
Sunrise 2017-12-17 19:10:04 UTC / 2017-12-17 10:10:04 Local
Sunset 2017-12-18 01:54:25 UTC / 2017-12-17 16:54:25 Local
Advertisement - Login to hide

Runways

ID Width Length Bearing (true) Bearing (mag) Surface Threshold Offset Overrun Length
05 100 ft / 30 m 4,985 ft / 1,520 m 70.31° 57.78° Gravel 0 ft / 0 m 0 ft / 0 m
13 100 ft / 30 m 3,993 ft / 1,217 m 147.51° 134.98° Gravel 0 ft / 0 m 0 ft / 0 m
23 100 ft / 30 m 4,985 ft / 1,520 m 250.33° 237.80° Gravel 0 ft / 0 m 0 ft / 0 m
31 100 ft / 30 m 3,993 ft / 1,217 m 327.52° 314.99° Gravel 0 ft / 0 m 0 ft / 0 m

Map

Weather


0- 5 10 15 20 25 30 35+ Temperature / ° C

Clouds and Precipitation
Forecast for 2017-12-18 00:00 UTC. Updated 19 minutes ago

Ground ~20,000 ft ~40,000 ft Winds

METAR

PAPH 172308Z AUTO 31008KT 10SM -RA FEW007 SCT010 OVC016 02/01 A2985 RMK AO2 P0001 FZRANO

TAF

Not found

Frequencies

Recorded 135.40 MHz AWOS 3
Unicom 122.80 MHz CTAF
Warning: Do not use this data for real-world aviation or navigation. No guarantee of current accuracy is given.